Time;durP1;ratioP1;P1;durP2;ratioP2;P2;SDS_P1;SDS_P2;PMS_P1;PMS_P2;Temp;Humidity;BMP_temperature;BMP_pressure;BME280_temperature;BME280_humidity;BME280_pressure;Samples;Min_cycle;Max_cycle;Signal;HPM_P1;HPM_P2
2022/06/15 00:01:50;;;;;;;8.75;7.85;;;18.70;99.90;;;19.02;64.74;101888.31;5114448;28;20059;-59
2022/06/15 00:04:19;;;;;;;11.45;7.97;;;18.60;99.90;;;18.86;64.90;101870.78;5096347;28;20395;-59
2022/06/15 00:06:47;;;;;;;10.82;7.90;;;18.60;99.90;;;18.74;64.99;101847.81;5114469;28;20050;-59
2022/06/15 00:09:16;;;;;;;11.52;8.20;;;18.50;99.90;;;18.93;64.97;101873.28;5114502;28;20047;-59
2022/06/15 00:11:46;;;;;;;12.40;8.35;;;18.50;99.90;;;18.72;65.67;101870.19;5114178;28;20169;-59
2022/06/15 00:14:19;;;;;;;16.52;8.70;;;18.40;99.90;;;18.73;65.65;101864.81;5114186;28;20074;-59
2022/06/15 00:16:49;;;;;;;10.32;8.35;;;18.40;99.90;;;18.67;66.17;101862.28;5114550;28;20085;-60
2022/06/15 00:19:18;;;;;;;14.00;9.82;;;18.30;99.90;;;18.44;66.71;101866.34;5114288;28;20050;-59
2022/06/15 00:21:46;;;;;;;16.33;10.38;;;18.10;99.90;;;18.53;66.82;101864.38;5114260;28;20118;-60
2022/06/15 00:24:14;;;;;;;14.70;9.43;;;18.10;99.90;;;18.63;66.78;101865.94;5095660;28;20390;-59
2022/06/15 00:26:43;;;;;;;16.83;10.75;;;18.20;99.90;;;18.49;66.70;101849.25;5113595;28;20653;-59
2022/06/15 00:29:12;;;;;;;15.95;10.68;;;18.20;99.90;;;18.56;66.92;101861.59;5095524;28;20425;-59
2022/06/15 00:31:41;;;;;;;16.77;10.13;;;18.20;99.90;;;18.63;67.03;101867.72;5113638;28;20450;-59
2022/06/15 00:34:12;;;;;;;15.50;9.98;;;18.20;99.90;;;18.68;66.98;101860.44;5113220;28;20051;-59
2022/06/15 00:36:40;;;;;;;12.93;10.07;;;18.30;99.90;;;18.70;66.97;101870.25;5113715;28;20062;-59
2022/06/15 00:39:13;;;;;;;16.50;10.32;;;18.30;99.90;;;18.69;67.07;101871.16;5113691;28;20043;-59
2022/06/15 00:41:43;;;;;;;11.27;9.27;;;18.30;99.90;;;18.65;67.20;101869.47;5095354;28;20040;-59
2022/06/15 00:44:43;;;;;;;12.98;9.10;;;18.30;99.90;;;18.71;67.20;101865.75;5095288;28;20040;-59
2022/06/15 00:47:20;;;;;;;12.50;9.80;;;18.30;99.90;;;18.72;67.28;101868.41;5030496;28;20057;-59
2022/06/15 00:49:56;;;;;;;11.43;9.10;;;18.40;99.90;;;18.75;67.17;101860.31;5100133;28;20297;-59
2022/06/15 00:52:32;;;;;;;13.02;9.85;;;18.40;99.90;;;18.69;66.94;101857.78;5095052;28;20113;-59
2022/06/15 00:55:06;;;;;;;11.80;9.55;;;18.40;99.90;;;18.76;66.97;101866.53;5095154;28;20055;-59
2022/06/15 00:57:36;;;;;;;14.25;10.27;;;18.40;99.90;;;18.75;67.04;101863.00;5095038;28;20471;-59
2022/06/15 01:00:07;;;;;;;12.75;9.52;;;18.30;99.90;;;18.67;67.09;101853.34;5113272;28;20044;-59
2022/06/15 01:02:38;;;;;;;11.77;8.70;;;18.30;99.90;;;18.59;67.14;101834.75;5113335;28;20430;-59
2022/06/15 01:05:13;;;;;;;13.65;9.93;;;18.30;99.90;;;18.61;67.38;101846.31;5113340;28;20368;-59
2022/06/15 01:08:18;;;;;;;11.38;9.68;;;18.30;99.90;;;18.61;67.50;101842.75;5113100;28;20421;-59
2022/06/15 01:11:12;;;;;;;12.70;9.02;;;18.20;99.90;;;18.57;67.50;101844.63;5093256;28;20116;-59
2022/06/15 01:14:07;;;;;;;13.75;9.95;;;18.20;99.90;;;18.58;67.39;101841.00;5094641;28;20070;-59
2022/06/15 01:16:46;;;;;;;14.02;10.63;;;18.20;99.90;;;18.51;67.73;101843.84;5094419;28;20528;-59
2022/06/15 01:19:54;;;;;;;11.65;10.07;;;18.10;99.90;;;18.52;67.48;101849.22;5112931;28;20393;-59
2022/06/15 01:22:58;;;;;;;13.27;9.88;;;18.20;99.90;;;18.57;67.49;101847.31;5094451;28;20135;-59
2022/06/15 01:25:40;;;;;;;13.00;9.70;;;18.20;99.90;;;18.49;67.73;101833.19;5112511;28;20051;-59
2022/06/15 01:28:43;;;;;;;13.50;9.73;;;18.10;99.90;;;18.54;67.39;101846.50;5112760;28;20074;-59
2022/06/15 01:31:27;;;;;;;13.55;9.77;;;18.10;99.90;;;18.49;67.58;101843.91;5112508;28;20595;-59
2022/06/15 01:34:10;;;;;;;12.63;8.90;;;18.10;99.90;;;18.51;67.71;101843.84;5112738;28;20039;-59
2022/06/15 01:36:45;;;;;;;14.00;9.88;;;18.10;99.90;;;18.51;67.65;101841.19;5094299;28;20047;-59
2022/06/15 01:39:22;;;;;;;13.82;9.85;;;18.10;99.90;;;18.51;67.72;101842.06;5112654;28;20043;-59
2022/06/15 01:41:57;;;;;;;17.08;10.07;;;18.10;99.90;;;18.53;67.55;101839.34;5112314;28;20051;-59
2022/06/15 01:44:31;;;;;;;13.48;9.45;;;18.10;99.90;;;18.44;67.70;101835.09;5094330;28;20128;-59
2022/06/15 01:47:06;;;;;;;14.05;9.30;;;18.10;99.90;;;18.43;67.66;101829.75;5093270;28;20439;-59
2022/06/15 01:49:42;;;;;;;12.50;9.07;;;18.10;99.90;;;18.45;67.78;101825.22;5112453;28;20139;-59
2022/06/15 01:52:16;;;;;;;14.50;9.38;;;18.00;99.90;;;18.41;67.94;101832.41;5094180;28;20071;-59
2022/06/15 01:54:52;;;;;;;15.30;9.55;;;18.00;99.90;;;18.43;68.18;101825.28;5094190;28;20047;-59
2022/06/15 01:57:23;;;;;;;15.35;10.23;;;18.00;99.90;;;18.40;67.93;101821.75;5094170;28;20048;-59
2022/06/15 01:59:58;;;;;;;11.23;9.35;;;18.10;99.90;;;18.39;68.12;101820.84;5093818;28;20055;-59
2022/06/15 02:02:40;;;;;;;15.05;9.98;;;18.00;99.90;;;18.39;68.30;101817.31;5094218;28;20443;-59
2022/06/15 02:05:16;;;;;;;13.30;9.80;;;18.00;99.90;;;18.31;68.27;101809.41;5112507;28;20047;-59
2022/06/15 02:07:54;;;;;;;15.43;9.85;;;18.00;99.90;;;18.28;68.60;101806.81;5094154;28;20043;-59
2022/06/15 02:10:29;;;;;;;14.90;9.68;;;18.00;99.90;;;18.43;68.26;101817.22;5112458;28;20043;-59
2022/06/15 02:13:05;;;;;;;12.85;9.40;;;18.00;99.90;;;18.37;68.40;101809.28;5094158;28;20048;-59
2022/06/15 02:15:41;;;;;;;12.68;9.88;;;18.00;99.90;;;18.40;68.36;101808.34;5094003;28;20116;-59
2022/06/15 02:18:16;;;;;;;11.32;9.40;;;18.00;99.90;;;18.40;68.39;101816.38;5094236;28;20072;-59
2022/06/15 02:20:51;;;;;;;12.95;9.27;;;18.00;99.90;;;18.32;68.66;101803.16;5094361;28;20488;-59
2022/06/15 02:23:23;;;;;;;12.35;9.50;;;17.90;99.90;;;18.30;68.78;101796.06;5094687;28;20043;-59
2022/06/15 02:25:54;;;;;;;11.43;9.32;;;17.90;99.90;;;18.22;68.98;101789.97;5094553;28;20051;-59
2022/06/15 02:28:28;;;;;;;15.88;9.40;;;17.80;99.90;;;18.23;68.96;101798.00;5094644;28;20069;-59
2022/06/15 02:30:58;;;;;;;13.68;9.68;;;17.90;99.90;;;18.21;69.32;101796.25;5112892;28;20063;-59
2022/06/15 02:33:30;;;;;;;11.82;9.07;;;17.80;99.90;;;18.22;69.48;101801.59;5094014;28;20081;-59
2022/06/15 02:36:02;;;;;;;12.32;9.35;;;17.80;99.90;;;18.14;69.57;101798.19;5094206;28;20378;-59
2022/06/15 02:38:32;;;;;;;;;;;17.80;99.90;;;17.97;70.01;101795.84;5094505;28;20063;-59
2022/06/15 02:41:02;;;;;;;16.55;10.15;;;17.70;99.90;;;18.02;70.22;101795.78;5094021;28;19927;-59
2022/06/15 02:43:33;;;;;;;14.25;10.02;;;17.70;99.90;;;18.04;70.18;101801.94;5094073;28;20058;-59
2022/06/15 02:46:02;;;;;;;;;;;17.60;99.90;;;17.94;70.50;101789.69;5094548;28;20047;-59
2022/06/15 02:48:36;;;;;;;16.48;10.32;;;17.60;99.90;;;17.94;70.68;101797.72;5093986;28;19934;-60
2022/06/15 02:51:11;;;;;;;15.93;10.13;;;17.60;99.90;;;17.96;70.61;101796.75;5094331;28;20500;-59
2022/06/15 02:53:44;;;;;;;15.52;11.05;;;17.60;99.90;;;17.91;70.68;101795.97;5094405;28;20074;-60
2022/06/15 02:56:14;;;;;;;;;;;17.50;99.90;;;17.74;70.93;101791.84;5094351;28;20131;-60
2022/06/15 02:58:47;;;;;;;15.73;10.10;;;17.50;99.90;;;17.82;71.09;101793.47;5115279;28;19923;-60
2022/06/15 03:01:16;;;;;;;15.77;9.98;;;17.50;99.90;;;17.71;71.05;101782.06;5097433;28;20134;-60
2022/06/15 03:03:49;;;;;;;15.25;10.57;;;17.40;99.90;;;17.75;71.27;101788.28;5097317;28;20520;-60
2022/06/15 03:06:28;;;;;;;16.20;10.05;;;17.40;99.90;;;17.79;71.06;101785.50;5097203;28;20047;-60
2022/06/15 03:09:01;;;;;;;11.80;9.88;;;17.40;99.90;;;17.73;71.27;101782.06;5097086;28;20116;-60
2022/06/15 03:11:45;;;;;;;12.32;9.55;;;17.40;99.90;;;17.67;71.42;101790.22;5097199;28;20067;-59
2022/06/15 03:14:24;;;;;;;14.60;10.20;;;17.30;99.90;;;17.72;71.56;101788.31;5097035;28;20392;-59
2022/06/15 03:16:54;;;;;;;13.38;10.35;;;17.40;99.90;;;17.68;71.46;101782.16;5096632;28;20056;-60
2022/06/15 03:19:26;;;;;;;14.73;10.27;;;17.30;99.90;;;17.59;71.91;101794.81;5097082;28;20130;-60
2022/06/15 03:22:00;;;;;;;12.02;10.30;;;17.20;99.90;;;17.59;71.89;101792.16;5096958;28;20044;-60
2022/06/15 03:24:30;;;;;;;13.35;9.88;;;17.20;99.90;;;17.60;71.87;101778.72;5096789;28;20147;-60
2022/06/15 03:26:59;;;;;;;13.48;9.93;;;17.30;99.90;;;17.65;71.82;101786.69;5096757;28;20481;-59
2022/06/15 03:29:30;;;;;;;15.82;10.15;;;17.30;99.90;;;17.63;71.73;101789.41;5096753;28;20082;-60
2022/06/15 03:32:05;;;;;;;13.98;10.25;;;17.30;99.90;;;17.65;71.96;101790.22;5096691;28;20075;-60
2022/06/15 03:34:45;;;;;;;16.05;10.40;;;17.30;99.90;;;17.66;71.63;101786.66;5096646;28;20051;-60
2022/06/15 03:37:14;;;;;;;12.77;9.43;;;17.30;99.90;;;17.65;71.88;101792.03;5096521;28;20047;-60
2022/06/15 03:39:44;;;;;;;14.45;9.80;;;17.30;99.90;;;17.62;71.79;101786.72;5096623;28;20051;-60
2022/06/15 03:42:18;;;;;;;13.73;9.57;;;17.30;99.90;;;17.51;71.98;101767.31;5096575;28;20397;-60
2022/06/15 03:44:48;;;;;;;15.52;10.02;;;17.30;99.90;;;17.63;71.96;101794.75;5096529;28;20093;-60
2022/06/15 03:47:20;;;;;;;13.52;10.15;;;17.30;99.90;;;17.63;72.01;101800.09;5096485;28;20104;-59
2022/06/15 03:49:52;;;;;;;;;;;17.30;99.90;;;17.65;72.11;101800.06;5096836;28;20085;-59
2022/06/15 03:52:26;;;;;;;12.75;9.60;;;17.30;99.90;;;17.67;72.17;101795.56;5096337;28;19942;-59
2022/06/15 03:54:55;;;;;;;15.35;9.45;;;17.30;99.90;;;17.70;72.05;101806.19;5096235;28;20040;-59
2022/06/15 03:57:24;;;;;;;12.40;9.77;;;17.30;99.90;;;17.72;71.87;101805.25;5095729;28;20044;-59
2022/06/15 03:59:54;;;;;;;16.15;10.38;;;17.30;99.90;;;17.72;72.03;101799.03;5096094;28;20063;-60
2022/06/15 04:02:41;;;;;;;10.65;9.15;;;17.40;99.90;;;17.78;72.02;101798.91;5114557;28;20176;-59
2022/06/15 04:05:21;;;;;;;13.52;10.18;;;17.40;99.90;;;17.77;71.77;101795.34;5095958;28;20043;-59
2022/06/15 04:10:37;;;;;;;13.50;9.82;;;17.40;99.90;;;17.74;72.03;101792.75;5095048;28;20055;-60
2022/06/15 04:13:09;;;;;;;13.75;9.63;;;17.40;99.90;;;17.74;72.09;101790.06;5095910;28;20127;-59
2022/06/15 04:15:37;;;;;;;11.98;9.48;;;17.40;99.90;;;17.66;71.72;101773.25;5095581;28;20051;-60
2022/06/15 04:18:06;;;;;;;11.25;9.15;;;17.40;99.90;;;17.80;71.66;101797.97;5095748;28;20153;-59
2022/06/15 04:20:48;;;;;;;13.18;9.90;;;17.40;99.90;;;17.84;71.52;101806.84;5096049;28;20064;-60
2022/06/15 04:23:22;;;;;;;13.13;8.95;;;17.40;99.90;;;17.30;71.36;101712.41;5095703;28;20047;-60
2022/06/15 04:25:57;;;;;;;14.40;9.63;;;17.50;99.90;;;17.58;71.24;101760.94;5095519;28;20047;-59
2022/06/15 04:28:38;;;;;;;13.30;9.73;;;17.40;99.90;;;17.88;71.43;101809.44;5095572;28;20055;-60
2022/06/15 04:31:15;;;;;;;13.73;9.10;;;17.50;99.90;;;17.91;71.25;101803.09;5095447;28;20488;-60
2022/06/15 04:33:44;;;;;;;13.15;9.68;;;17.50;99.90;;;17.81;71.15;101781.00;5095167;28;20447;-59
2022/06/15 04:36:17;;;;;;;14.75;9.88;;;17.60;99.90;;;17.92;71.15;101803.06;5095334;28;20048;-59
2022/06/15 04:38:50;;;;;;;12.80;8.18;;;17.50;99.90;;;17.95;71.29;101796.78;5095349;28;20047;-59
2022/06/15 04:41:28;;;;;;;18.83;9.07;;;17.60;99.90;;;17.95;70.91;101804.81;5095319;28;20050;-59
2022/06/15 04:43:56;;;;;;;12.82;9.00;;;17.60;99.90;;;17.98;70.96;101807.44;5095234;28;20085;-60
2022/06/15 04:46:25;;;;;;;12.63;9.25;;;17.60;99.90;;;17.99;70.80;101806.53;5095229;28;20039;-59
2022/06/15 04:48:55;;;;;;;15.75;9.55;;;17.60;99.90;;;18.05;70.63;101806.41;5094840;28;20120;-60
2022/06/15 04:51:27;;;;;;;15.05;9.80;;;17.60;99.90;;;18.09;70.34;101807.22;5095083;28;20043;-60
2022/06/15 04:53:59;;;;;;;14.00;9.95;;;17.70;99.90;;;18.05;70.34;101806.41;5094863;28;20043;-60
2022/06/15 04:56:28;;;;;;;15.10;9.32;;;17.70;99.90;;;18.11;70.24;101806.28;5095080;28;20048;-59
2022/06/15 04:59:00;;;;;;;12.93;9.07;;;17.70;99.90;;;18.08;70.27;101803.66;5095284;28;20043;-60
2022/06/15 05:01:30;;;;;;;13.65;9.13;;;17.70;99.90;;;18.14;70.13;101803.53;5095082;28;20063;-60
2022/06/15 05:04:01;;;;;;;14.95;9.60;;;17.70;99.90;;;18.14;70.02;101808.03;5094983;28;20054;-60
2022/06/15 05:06:34;;;;;;;14.77;9.95;;;17.80;99.90;;;17.94;70.25;101805.75;5113378;28;20119;-60
2022/06/15 05:09:06;;;;;;;14.40;9.82;;;17.70;99.90;;;17.65;70.69;101789.34;5095036;28;20134;-59
2022/06/15 05:11:34;;;;;;;;;;;17.50;99.90;;;17.89;70.75;101799.56;5095425;28;20055;-60
2022/06/15 05:14:03;;;;;;;16.15;9.77;;;17.50;99.90;;;17.47;72.33;101805.69;5094944;28;19937;-60
2022/06/15 05:16:37;;;;;;;11.70;10.15;;;17.20;99.90;;;17.09;73.34;101777.81;5094503;28;20569;-60
2022/06/15 05:19:11;;;;;;;17.33;10.30;;;16.90;99.90;;;16.89;75.08;101804.00;5094529;28;20078;-59
2022/06/15 05:21:43;;;;;;;16.48;10.63;;;16.70;99.90;;;17.12;75.30;101807.19;5094564;28;20044;-59
2022/06/15 05:24:15;;;;;;;15.80;10.02;;;16.60;99.90;;;16.79;75.60;101799.69;5094767;28;20039;-60
2022/06/15 05:27:06;;;;;;;18.42;10.70;;;16.50;99.90;;;17.19;74.89;101809.78;5094906;28;20062;-59
2022/06/15 05:29:37;;;;;;;12.50;9.95;;;16.70;99.90;;;17.24;74.66;101803.44;5094476;28;20105;-59
2022/06/15 05:32:12;;;;;;;12.68;10.55;;;16.80;99.90;;;16.94;74.92;101801.22;5095335;28;20054;-60
2022/06/15 05:34:40;;;;;;;13.40;9.63;;;16.60;99.90;;;16.89;76.40;101795.97;5095133;28;20536;-60
2022/06/15 05:37:10;;;;;;;17.15;9.93;;;16.50;99.90;;;17.23;74.99;101803.47;5094959;28;20040;-60
2022/06/15 05:39:40;;;;;;;;;;;16.80;99.90;;;17.42;74.18;101783.50;5094867;28;20044;-59
2022/06/15 05:42:09;;;;;;;14.15;9.93;;;17.10;99.90;;;17.19;74.20;101815.97;5111592;28;20023;-59
2022/06/15 05:44:48;;;;;;;14.57;10.70;;;16.80;99.90;;;17.31;74.17;101812.22;5094317;28;20070;-60
2022/06/15 05:47:18;;;;;;;15.30;9.50;;;16.90;99.90;;;17.27;74.80;101819.41;5094455;28;20052;-60
2022/06/15 05:50:02;;;;;;;16.75;9.73;;;17.00;99.90;;;17.62;73.25;101817.03;5094573;28;20043;-60
2022/06/15 05:52:41;;;;;;;16.35;9.73;;;17.20;99.90;;;17.19;73.43;101820.47;5094750;28;20537;-60
2022/06/15 05:55:10;;;;;;;12.95;9.63;;;17.00;99.90;;;17.21;73.73;101818.66;5094543;28;20108;-59
2022/06/15 05:57:39;;;;;;;16.90;9.67;;;16.80;99.90;;;17.49;73.39;101811.94;5094358;28;20036;-60
2022/06/15 06:00:09;;;;;;;14.07;10.30;;;17.00;99.90;;;17.80;72.09;101824.75;5112654;28;20112;-60
2022/06/15 06:02:41;;;;;;;14.43;9.43;;;17.30;99.90;;;17.55;73.04;101774.38;5112595;28;20158;-60
2022/06/15 06:05:10;;;;;;;13.13;9.00;;;17.40;99.90;;;17.89;72.09;101840.63;5112636;28;20043;-60
2022/06/15 06:07:40;;;;;;;14.23;9.10;;;17.50;99.90;;;17.60;70.65;101817.97;5112224;28;20519;-60
2022/06/15 06:10:10;;;;;;;15.83;9.47;;;17.40;99.90;;;17.66;72.72;101804.50;5112129;28;20044;-60
2022/06/15 06:12:38;;;;;;;15.13;9.40;;;17.30;99.90;;;18.11;72.26;101814.31;5112466;28;20109;-60
2022/06/15 06:15:08;;;;;;;14.60;9.65;;;17.60;99.90;;;18.09;70.91;101815.25;5112225;28;20389;-60
2022/06/15 06:17:36;;;;;;;12.75;8.95;;;17.70;99.90;;;17.89;71.21;101823.66;5112371;28;20179;-60
2022/06/15 06:20:06;;;;;;;15.20;9.00;;;17.50;99.90;;;18.12;73.19;101821.44;5112078;28;20054;-60
2022/06/15 06:22:34;;;;;;;14.85;8.85;;;17.60;99.90;;;18.36;70.90;101823.63;5112072;28;20523;-60
2022/06/15 06:25:06;;;;;;;16.33;9.15;;;18.00;99.90;;;18.33;71.61;101822.81;5111975;28;20038;-60
2022/06/15 06:27:35;;;;;;;17.42;9.00;;;17.90;99.90;;;18.48;70.80;101836.78;5112127;28;20138;-59
2022/06/15 06:30:05;;;;;;;15.00;8.57;;;18.00;99.90;;;18.31;71.44;101817.44;5112114;28;20051;-60
2022/06/15 06:32:33;;;;;;;16.00;8.27;;;17.90;99.90;;;18.40;70.75;101825.31;5113920;28;20120;-60
2022/06/15 06:35:02;;;;;;;12.30;8.13;;;17.90;99.90;;;18.56;70.87;101821.41;5115892;28;20699;-60
2022/06/15 06:37:34;;;;;;;20.33;8.63;;;18.00;99.90;;;18.98;69.81;101827.59;5116072;28;20070;-60
2022/06/15 06:40:06;;;;;;;15.65;9.02;;;18.40;99.90;;;18.58;69.37;101832.97;5116434;28;20043;-60
2022/06/15 06:42:34;;;;;;;10.85;7.82;;;18.30;99.90;;;18.85;69.08;101835.03;5097665;28;20457;-60
2022/06/15 06:45:04;;;;;;;11.50;7.80;;;18.40;99.90;;;19.14;68.02;101844.22;5097572;28;20067;-60
2022/06/15 06:47:32;;;;;;;13.82;7.85;;;18.70;99.90;;;18.92;67.03;101834.00;5115597;28;20067;-60
2022/06/15 06:50:00;;;;;;;12.88;7.30;;;18.60;99.90;;;19.27;67.58;101837.63;5115915;28;20063;-59
2022/06/15 06:52:29;;;;;;;12.57;7.80;;;18.80;99.90;;;19.03;67.35;101840.91;5115718;28;20059;-60
2022/06/15 06:54:57;;;;;;;12.07;7.28;;;18.70;99.90;;;18.99;67.02;101841.91;5115574;28;20434;-60
2022/06/15 06:57:27;;;;;;;14.40;8.18;;;18.60;99.90;;;19.16;67.03;101835.22;5115877;28;20112;-60
2022/06/15 06:59:55;;;;;;;17.50;8.52;;;18.80;99.90;;;19.49;64.72;101836.22;5115731;28;20123;-59
2022/06/15 07:02:23;;;;;;;10.27;7.47;;;19.10;99.90;;;19.34;65.46;101841.94;5115341;28;20039;-60
2022/06/15 07:04:52;;;;;;;13.30;7.82;;;18.90;99.90;;;19.45;63.24;101839.91;5115296;28;20404;-59
2022/06/15 07:07:20;;;;;;;16.67;8.07;;;19.10;99.90;;;19.64;65.87;101846.56;5115287;28;20074;-59
2022/06/15 07:09:49;;;;;;;11.90;7.68;;;19.20;99.90;;;19.88;63.80;101845.88;5115301;28;20157;-59
2022/06/15 07:12:17;;;;;;;12.55;7.07;;;19.50;99.90;;;19.74;62.90;101853.44;5096826;28;20078;-59
2022/06/15 07:14:50;;;;;;;15.25;7.53;;;19.40;99.90;;;19.73;63.33;101851.66;5096399;28;20143;-59
2022/06/15 07:17:19;;;;;;;15.07;7.15;;;19.30;99.90;;;20.05;61.68;101853.50;5115006;28;20067;-59
2022/06/15 07:19:49;;;;;;;12.55;7.60;;;19.50;99.90;;;20.20;61.04;101856.69;5115753;28;20049;-59
2022/06/15 07:22:17;;;;;;;12.60;6.80;;;19.80;99.90;;;20.40;61.59;101856.97;5114920;28;20070;-59
2022/06/15 07:24:46;;;;;;;11.80;7.13;;;19.90;99.90;;;20.75;61.39;101863.13;5114830;28;20036;-59
2022/06/15 07:27:15;;;;;;;19.00;8.23;;;20.20;99.90;;;20.87;62.13;101865.41;5114822;28;20067;-59
2022/06/15 07:29:46;;;;;;;11.07;6.68;;;20.50;99.90;;;21.12;60.90;101855.69;5114787;28;20090;-59
2022/06/15 07:32:17;;;;;;;9.95;6.25;;;20.70;99.90;;;20.76;58.58;101859.50;5114722;28;20423;-59
2022/06/15 07:34:46;;;;;;;12.52;6.22;;;20.50;99.90;;;20.43;58.53;101867.66;5115137;28;20035;-59
2022/06/15 07:37:14;;;;;;;11.88;6.53;;;20.20;99.90;;;20.48;57.88;101859.44;5114621;28;20520;-59
2022/06/15 07:40:03;;;;;;;14.00;6.28;;;20.10;99.90;;;20.19;58.69;101868.34;5114577;28;20040;-59
2022/06/15 07:42:32;;;;;;;7.90;5.90;;;19.80;99.90;;;20.65;60.67;101857.16;5115108;28;20122;-59
2022/06/15 07:45:02;;;;;;;10.38;6.00;;;20.10;99.90;;;21.03;58.93;101848.81;5096411;28;20039;-59
2022/06/15 07:50:17;;;;;;;11.07;5.55;;;20.90;99.90;;;21.51;56.39;101867.84;5114805;28;20067;-59
2022/06/15 07:53:04;;;;;;;11.88;5.65;;;21.20;99.90;;;21.87;56.99;101863.06;5114490;28;20108;-59
2022/06/15 07:55:36;;;;;;;13.02;5.93;;;21.50;99.90;;;21.54;55.84;101863.22;5096135;28;20476;-59
2022/06/15 07:58:06;;;;;;;12.15;5.55;;;21.30;99.90;;;21.58;53.46;101868.53;5114350;28;20036;-59
2022/06/15 08:00:38;;;;;;;14.88;6.05;;;21.30;99.90;;;21.17;55.62;101862.72;5114090;28;20052;-59
2022/06/15 08:03:07;;;;;;;10.35;4.72;;;20.90;99.90;;;21.71;53.80;101854.59;5114373;28;20051;-60
2022/06/15 08:05:40;;;;;;;10.48;5.70;;;21.20;99.90;;;22.09;53.37;101861.34;5114251;28;20440;-59
2022/06/15 08:08:11;;;;;;;11.85;6.10;;;21.60;99.90;;;22.11;52.44;101848.69;5096004;28;20044;-59
2022/06/15 08:10:40;;;;;;;10.73;4.70;;;21.90;99.90;;;21.26;49.46;101781.66;5095942;28;20055;-59
2022/06/15 08:13:10;;;;;;;11.85;6.00;;;21.70;99.90;;;20.81;52.56;101854.88;5114316;28;20039;-59
2022/06/15 08:15:41;;;;;;;8.63;5.18;;;20.70;99.90;;;20.76;53.99;101844.25;5114031;28;20435;-59
2022/06/15 08:18:15;;;;;;;10.43;5.50;;;20.60;99.90;;;20.89;52.85;101856.38;5114004;28;20043;-59
2022/06/15 08:20:49;;;;;;;14.48;5.30;;;20.50;99.90;;;21.27;54.11;101864.13;5114032;28;20047;-59
2022/06/15 08:23:23;;;;;;;8.57;5.72;;;20.70;99.90;;;21.20;51.47;101843.75;5113907;28;20504;-59
2022/06/15 08:25:55;;;;;;;11.32;5.38;;;20.90;99.90;;;21.52;52.28;101867.78;5114159;28;20043;-59
2022/06/15 08:28:27;;;;;;;10.68;5.40;;;21.00;99.90;;;21.38;51.08;101861.13;5113967;28;20067;-59
2022/06/15 08:30:57;;;;;;;9.25;5.68;;;21.00;99.90;;;21.10;52.59;101868.34;5095653;28;20461;-59
2022/06/15 08:33:26;;;;;;;14.43;5.78;;;20.90;99.90;;;20.96;53.55;101865.16;5114078;28;20054;-59
2022/06/15 08:35:55;;;;;;;10.57;5.90;;;20.60;99.90;;;21.03;52.05;101870.31;5114098;28;20086;-59
2022/06/15 08:38:27;;;;;;;10.20;5.32;;;20.60;99.90;;;21.23;53.28;101872.38;5114079;28;20067;-59
2022/06/15 08:41:03;;;;;;;14.90;4.95;;;20.70;99.90;;;21.40;52.95;101870.03;5114185;28;20496;-59
2022/06/15 08:43:51;;;;;;;11.32;5.15;;;20.80;99.90;;;21.89;50.55;101869.28;5114572;28;20531;-59
2022/06/15 08:46:35;;;;;;;9.95;5.20;;;21.40;99.90;;;22.22;49.48;101862.69;5113668;28;20047;-59
2022/06/15 08:49:23;;;;;;;12.82;5.60;;;21.80;99.90;;;21.99;49.10;101873.41;5113471;28;20104;-59
2022/06/15 08:51:59;;;;;;;10.52;5.22;;;21.80;99.90;;;22.29;49.28;101873.19;5113375;28;20048;-59
2022/06/15 08:54:32;;;;;;;7.55;4.57;;;21.90;99.90;;;22.74;49.54;101869.72;5113920;28;20122;-59
2022/06/15 08:57:12;;;;;;;9.02;5.10;;;22.30;99.90;;;23.05;48.80;101868.44;5114211;28;20043;-59
2022/06/15 08:59:48;;;;;;;9.32;4.72;;;22.60;99.90;;;23.34;47.49;101858.31;5113482;28;20043;-59
2022/06/15 09:02:26;;;;;;;8.48;4.43;;;23.00;99.90;;;23.44;46.88;101852.47;5113250;28;20043;-59
2022/06/15 09:05:00;;;;;;;9.40;5.18;;;23.10;99.90;;;23.22;47.18;101857.84;5113443;28;20047;-59
2022/06/15 09:07:49;;;;;;;8.15;4.82;;;23.00;99.90;;;23.02;45.50;101867.69;5113255;28;20074;-59
2022/06/15 09:10:37;;;;;;;9.23;4.60;;;22.80;99.90;;;23.00;45.69;101870.44;5095016;28;20441;-60
2022/06/15 09:13:25;;;;;;;8.73;4.80;;;22.90;99.90;;;22.37;47.68;101867.50;5113086;28;20097;-60
2022/06/15 09:16:08;;;;;;;10.45;4.78;;;22.10;99.90;;;21.94;49.55;101860.09;5112862;28;20073;-59
2022/06/15 09:18:44;;;;;;;7.70;4.80;;;21.80;99.90;;;22.10;47.05;101857.72;5112965;28;20048;-59
2022/06/15 09:21:17;;;;;;;10.07;5.20;;;21.70;99.90;;;22.44;48.28;101859.13;5112806;28;20044;-60
2022/06/15 09:23:51;;;;;;;8.30;5.07;;;22.00;99.90;;;22.91;47.89;101864.53;5112722;28;20047;-59
2022/06/15 09:26:28;;;;;;;7.65;4.68;;;22.40;99.90;;;22.66;47.64;101745.03;5112759;28;20395;-60
2022/06/15 09:29:03;;;;;;;9.57;4.40;;;22.80;99.90;;;23.31;45.58;101835.00;5112724;28;20105;-59
2022/06/15 09:31:39;;;;;;;6.32;4.20;;;23.10;99.90;;;23.71;46.46;101859.41;5113108;28;20035;-59
2022/06/15 09:34:16;;;;;;;8.00;4.30;;;23.30;99.90;;;23.99;46.13;101861.78;5112860;28;20450;-60
2022/06/15 09:36:48;;;;;;;11.02;5.00;;;23.60;99.90;;;23.93;44.34;101859.34;5112594;28;20043;-63
2022/06/15 09:39:18;;;;;;;6.97;4.15;;;23.70;99.90;;;22.67;45.21;101863.66;5112443;28;20050;-59
2022/06/15 09:41:54;;;;;;;6.50;4.37;;;22.60;99.90;;;22.42;46.99;101860.09;5112561;28;20127;-60
2022/06/15 09:44:32;;;;;;;9.55;4.60;;;22.20;99.90;;;22.68;46.43;101851.94;5112393;28;20309;-59
2022/06/15 09:47:25;;;;;;;9.52;4.60;;;22.20;99.90;;;23.16;45.32;101860.81;5112308;28;20044;-59
2022/06/15 09:50:07;;;;;;;6.97;4.70;;;22.70;99.90;;;23.56;44.46;101864.56;5112349;28;20131;-59
2022/06/15 09:52:48;;;;;;;9.30;4.78;;;23.10;99.90;;;23.65;43.39;101865.09;5112178;28;20040;-59
2022/06/15 09:55:28;;;;;;;9.75;4.80;;;23.40;99.90;;;22.88;44.57;101789.13;5112220;28;20040;-59
2022/06/15 09:57:56;;;;;;;9.82;4.97;;;23.20;99.90;;;22.55;45.52;101866.78;5112578;28;20162;-60
2022/06/15 10:00:25;;;;;;;8.98;4.65;;;22.50;99.90;;;23.14;47.49;101864.50;5112165;28;20043;-59
2022/06/15 10:03:00;;;;;;;6.38;3.85;;;22.60;99.90;;;23.66;46.37;101866.84;5112163;28;20073;-59
2022/06/15 10:05:36;;;;;;;7.75;4.10;;;23.20;99.90;;;22.97;46.45;101873.28;5112175;28;20070;-60
2022/06/15 10:08:09;;;;;;;7.85;4.65;;;22.90;99.90;;;22.38;44.21;101843.16;5114680;28;20043;-59
2022/06/15 10:10:47;;;;;;;9.57;4.88;;;22.40;99.90;;;22.56;45.53;101836.19;5116307;28;20067;-60
2022/06/15 10:13:32;;;;;;;9.70;4.57;;;22.30;99.90;;;23.01;45.37;101861.44;5116180;28;20438;-59
2022/06/15 10:16:04;;;;;;;10.52;4.78;;;22.50;99.90;;;22.98;45.95;101852.53;5097662;28;20052;-59
2022/06/15 10:18:37;;;;;;;8.20;4.60;;;22.70;99.90;;;22.21;45.60;101831.25;5116237;28;20040;-59
2022/06/15 10:21:21;;;;;;;9.15;5.07;;;22.10;99.90;;;22.85;45.75;101860.25;5116696;28;20150;-59
2022/06/15 10:23:57;;;;;;;7.50;4.53;;;22.40;99.90;;;22.52;47.71;101849.84;5116023;28;20075;-59
2022/06/15 10:26:40;;;;;;;12.20;4.93;;;22.10;99.90;;;23.20;46.69;101862.44;5116178;28;20450;-59
2022/06/15 10:29:31;;;;;;;9.82;4.70;;;22.60;99.90;;;22.87;44.93;101861.09;5116618;28;20093;-59
2022/06/15 10:32:17;;;;;;;9.95;5.20;;;22.60;99.90;;;22.55;46.91;101860.53;5097723;28;20495;-59
2022/06/15 10:35:07;;;;;;;8.15;5.10;;;22.20;99.90;;;22.20;47.71;101849.22;5116473;28;20044;-59
2022/06/15 10:37:42;;;;;;;8.63;5.40;;;21.90;99.90;;;22.41;47.18;101864.63;5116042;28;20043;-59
2022/06/15 10:40:24;;;;;;;8.50;4.38;;;22.00;99.90;;;22.55;49.22;101855.16;5115732;28;20039;-59
2022/06/15 10:42:56;;;;;;;10.23;5.13;;;22.10;99.90;;;23.11;47.29;101862.78;5115718;28;20081;-59